createdAt,value
2022-08-26T00:01:55.112Z,3.17
2022-08-26T00:04:25.457Z,3.30
2022-08-26T00:06:56.850Z,3.93
2022-08-26T00:09:25.744Z,3.23
2022-08-26T00:11:54.761Z,3.27
2022-08-26T00:14:28.307Z,3.30
2022-08-26T00:16:58.865Z,3.50
2022-08-26T00:19:26.526Z,3.40
2022-08-26T00:21:54.210Z,3.13
2022-08-26T00:24:23.726Z,3.80
2022-08-26T00:26:51.826Z,3.30
2022-08-26T00:29:19.725Z,3.43
2022-08-26T00:31:49.371Z,3.27
2022-08-26T00:34:19.426Z,3.10
2022-08-26T00:36:49.371Z,3.50
2022-08-26T00:39:20.397Z,3.60
2022-08-26T00:41:48.251Z,3.63
2022-08-26T00:44:15.787Z,3.57
2022-08-26T00:46:48.894Z,3.23
2022-08-26T00:49:36.422Z,3.27
2022-08-26T00:52:09.819Z,3.23
2022-08-26T00:54:52.665Z,3.40
2022-08-26T00:57:22.344Z,3.53
2022-08-26T00:59:55.223Z,3.30
2022-08-26T01:02:23.611Z,3.40
2022-08-26T01:04:57.253Z,3.43
2022-08-26T01:07:31.380Z,3.50
2022-08-26T01:10:05.560Z,3.90
2022-08-26T01:12:40.329Z,3.73
2022-08-26T01:15:10.464Z,3.50
2022-08-26T01:17:41.364Z,3.43
2022-08-26T01:20:25.206Z,3.93
2022-08-26T01:23:03.245Z,3.67
2022-08-26T01:25:33.933Z,3.60
2022-08-26T01:28:06.705Z,3.33
2022-08-26T01:30:35.907Z,3.53
2022-08-26T01:33:09.367Z,3.37
2022-08-26T01:35:40.311Z,3.23
2022-08-26T01:38:07.555Z,3.67
2022-08-26T01:40:38.285Z,3.47
2022-08-26T01:43:08.691Z,3.53
2022-08-26T01:45:37.602Z,3.30
2022-08-26T01:48:11.893Z,3.37
2022-08-26T01:50:39.895Z,3.57
2022-08-26T01:53:12.392Z,3.60
2022-08-26T01:55:43.805Z,3.70
2022-08-26T01:58:18.653Z,3.53
2022-08-26T02:00:46.480Z,4.33
2022-08-26T02:03:17.378Z,3.30
2022-08-26T02:06:09.385Z,3.50
2022-08-26T02:08:42.730Z,3.47
2022-08-26T02:11:11.366Z,3.57
2022-08-26T02:13:41.944Z,3.27
2022-08-26T02:16:11.355Z,4.03
2022-08-26T02:18:41.728Z,3.30
2022-08-26T02:21:12.106Z,3.20
2022-08-26T02:23:40.849Z,3.10
2022-08-26T02:26:11.664Z,3.10
2022-08-26T02:28:51.034Z,3.27
2022-08-26T02:31:18.763Z,3.40
2022-08-26T02:33:47.227Z,3.80
2022-08-26T02:36:23.713Z,3.90
2022-08-26T02:38:55.787Z,3.40
2022-08-26T02:41:23.134Z,3.33
2022-08-26T02:43:50.517Z,3.50
2022-08-26T02:46:28.030Z,3.80
2022-08-26T02:48:58.587Z,3.50
2022-08-26T02:51:25.724Z,3.63
2022-08-26T02:53:53.057Z,3.00
2022-08-26T02:56:20.115Z,4.03
2022-08-26T02:58:50.233Z,3.60
2022-08-26T03:01:31.148Z,3.60
2022-08-26T03:04:00.285Z,3.70
2022-08-26T03:06:27.760Z,3.47
2022-08-26T03:08:56.217Z,3.60
2022-08-26T03:11:24.815Z,3.80
2022-08-26T03:13:52.946Z,3.17
2022-08-26T03:16:21.062Z,2.97
2022-08-26T03:18:52.301Z,3.37
2022-08-26T03:21:21.246Z,3.30
2022-08-26T03:23:48.402Z,3.67
2022-08-26T03:26:17.253Z,3.67
2022-08-26T03:29:03.122Z,4.13
2022-08-26T03:31:30.581Z,4.00
2022-08-26T03:33:59.687Z,3.50
2022-08-26T03:36:27.895Z,3.53
2022-08-26T03:38:56.755Z,4.30
2022-08-26T03:41:24.162Z,3.63
2022-08-26T03:43:51.267Z,3.87
2022-08-26T03:46:20.601Z,3.43
2022-08-26T03:48:48.104Z,3.93
2022-08-26T03:51:19.113Z,4.20
2022-08-26T03:53:48.394Z,3.73
2022-08-26T03:56:15.777Z,3.53
2022-08-26T03:58:44.783Z,3.87
2022-08-26T04:01:15.676Z,3.80
2022-08-26T04:04:00.317Z,3.90
2022-08-26T04:06:35.746Z,3.50
2022-08-26T04:09:15.087Z,4.03
2022-08-26T04:11:44.953Z,3.93
2022-08-26T04:14:20.075Z,3.80
2022-08-26T04:16:49.120Z,3.80
2022-08-26T04:19:17.162Z,3.53
2022-08-26T04:21:46.268Z,3.67
2022-08-26T04:24:15.815Z,3.57
2022-08-26T04:26:45.160Z,3.77
2022-08-26T04:29:24.194Z,3.60
2022-08-26T04:31:55.442Z,4.00
2022-08-26T04:34:24.825Z,4.20
2022-08-26T04:36:58.194Z,3.73
2022-08-26T04:39:25.773Z,3.80
2022-08-26T04:41:55.409Z,3.50
2022-08-26T04:44:25.232Z,3.50
2022-08-26T04:46:53.283Z,3.43
2022-08-26T04:49:20.767Z,3.40
2022-08-26T04:51:49.036Z,3.70
2022-08-26T04:54:16.762Z,3.63
2022-08-26T04:56:47.595Z,3.80
2022-08-26T04:59:18.109Z,3.40
2022-08-26T05:01:51.548Z,3.67
2022-08-26T05:04:20.732Z,3.30
2022-08-26T05:06:49.152Z,3.73
2022-08-26T05:09:16.537Z,3.37
2022-08-26T05:11:43.608Z,4.07
2022-08-26T05:14:10.857Z,3.83
2022-08-26T05:16:38.955Z,3.83
2022-08-26T05:19:08.432Z,3.97
2022-08-26T05:21:37.874Z,3.70
2022-08-26T05:24:09.639Z,3.67
2022-08-26T05:26:38.163Z,3.70
2022-08-26T05:29:06.826Z,3.90
2022-08-26T05:31:35.715Z,3.90
2022-08-26T05:34:04.867Z,3.80
2022-08-26T05:36:34.968Z,3.67
2022-08-26T05:39:04.532Z,3.77
2022-08-26T05:41:36.412Z,3.83
2022-08-26T05:44:08.027Z,3.20
2022-08-26T05:46:37.162Z,3.57
2022-08-26T05:49:05.965Z,3.47
2022-08-26T05:51:40.710Z,3.50
2022-08-26T05:54:07.818Z,3.93
2022-08-26T05:56:39.050Z,3.77
2022-08-26T05:59:14.089Z,3.93
2022-08-26T06:01:43.816Z,3.40
2022-08-26T06:04:12.362Z,3.63
2022-08-26T06:06:42.837Z,4.10
2022-08-26T06:09:12.319Z,3.67
2022-08-26T06:11:40.458Z,4.03
2022-08-26T06:14:08.669Z,3.87
2022-08-26T06:16:40.962Z,3.83
2022-08-26T06:19:11.445Z,3.33
2022-08-26T06:21:41.341Z,3.80
2022-08-26T06:24:31.564Z,3.67
2022-08-26T06:27:02.106Z,3.80
2022-08-26T06:29:32.596Z,3.67
2022-08-26T06:32:00.665Z,3.77
2022-08-26T06:34:31.020Z,3.30
2022-08-26T06:37:06.369Z,4.10
2022-08-26T06:39:34.639Z,3.70
2022-08-26T06:42:03.390Z,3.70
2022-08-26T06:44:34.432Z,3.90
2022-08-26T06:47:03.070Z,3.87
2022-08-26T06:49:31.655Z,3.70
2022-08-26T06:51:59.107Z,3.97
2022-08-26T06:54:28.645Z,3.97
2022-08-26T06:56:57.420Z,3.77
2022-08-26T06:59:25.668Z,3.80
2022-08-26T07:01:53.659Z,4.20
2022-08-26T07:04:23.229Z,4.50
2022-08-26T07:06:52.358Z,4.47
2022-08-26T07:09:23.252Z,4.17
2022-08-26T07:11:51.660Z,4.00
2022-08-26T07:14:21.630Z,3.87
2022-08-26T07:16:50.706Z,4.10
2022-08-26T07:19:28.517Z,4.00
2022-08-26T07:22:03.474Z,3.73
2022-08-26T07:24:32.442Z,3.70
2022-08-26T07:27:08.780Z,3.63
2022-08-26T07:29:37.852Z,4.27
2022-08-26T07:32:06.632Z,3.80
2022-08-26T07:34:34.145Z,3.77
2022-08-26T07:37:01.943Z,4.00
2022-08-26T07:39:31.651Z,4.00
2022-08-26T07:42:07.887Z,3.80
2022-08-26T07:44:37.705Z,4.20
2022-08-26T07:47:10.568Z,4.13
2022-08-26T07:49:57.730Z,4.37
2022-08-26T07:52:27.636Z,3.90
2022-08-26T07:55:02.086Z,4.00
2022-08-26T07:57:30.594Z,3.97
2022-08-26T07:59:58.992Z,4.17
2022-08-26T08:02:28.946Z,4.43
2022-08-26T08:04:58.106Z,4.10
2022-08-26T08:07:38.494Z,4.37
2022-08-26T08:10:20.868Z,4.17
2022-08-26T08:12:49.708Z,4.50
2022-08-26T08:15:20.384Z,4.03
2022-08-26T08:17:48.034Z,4.80
2022-08-26T08:20:21.218Z,4.00
2022-08-26T08:22:50.745Z,4.20
2022-08-26T08:25:19.949Z,4.57
2022-08-26T08:27:48.918Z,4.03
2022-08-26T08:30:23.104Z,4.13
2022-08-26T08:32:52.170Z,4.13
2022-08-26T08:35:24.192Z,4.33
2022-08-26T08:37:54.586Z,4.63
2022-08-26T08:40:27.168Z,4.50
2022-08-26T08:43:25.516Z,4.10
2022-08-26T08:46:01.259Z,4.23
2022-08-26T08:48:35.906Z,4.73
2022-08-26T08:51:39.928Z,4.77
2022-08-26T08:54:08.840Z,4.40
2022-08-26T08:57:05.695Z,4.40
2022-08-26T08:59:35.672Z,4.17
2022-08-26T09:02:17.880Z,4.17
2022-08-26T09:04:53.921Z,4.10
2022-08-26T09:07:26.439Z,4.53
2022-08-26T09:09:59.415Z,4.10
2022-08-26T09:12:31.584Z,4.10
2022-08-26T09:15:25.457Z,4.60
2022-08-26T09:18:04.556Z,4.27
2022-08-26T09:20:42.198Z,4.20
2022-08-26T09:23:13.286Z,4.13
2022-08-26T09:28:27.487Z,4.30
2022-08-26T09:31:03.514Z,4.23
2022-08-26T09:33:33.400Z,4.20
2022-08-26T09:36:17.534Z,4.00
2022-08-26T09:38:45.380Z,3.57
2022-08-26T09:41:33.564Z,4.10
2022-08-26T09:44:14.555Z,3.70
2022-08-26T09:47:05.623Z,3.77
2022-08-26T09:49:38.706Z,4.27
2022-08-26T09:52:11.647Z,3.80
2022-08-26T09:54:39.989Z,4.17
2022-08-26T09:57:28.976Z,4.10
2022-08-26T09:59:56.483Z,4.13
2022-08-26T10:02:33.263Z,3.90
2022-08-26T10:05:09.337Z,4.10
2022-08-26T10:07:51.118Z,3.93
2022-08-26T10:10:26.497Z,3.67
2022-08-26T10:13:06.678Z,4.13
2022-08-26T10:15:50.008Z,4.43
2022-08-26T10:18:33.686Z,4.50
2022-08-26T10:21:14.342Z,4.00
2022-08-26T10:23:51.896Z,4.07
2022-08-26T10:27:01.201Z,4.00
2022-08-26T10:29:50.950Z,4.10
2022-08-26T10:32:41.445Z,4.43
2022-08-26T10:35:14.341Z,4.80
2022-08-26T10:38:14.605Z,4.27
2022-08-26T10:40:49.136Z,3.93
2022-08-26T10:43:25.636Z,4.33
2022-08-26T10:46:00.836Z,4.53
2022-08-26T10:48:47.993Z,4.27
2022-08-26T10:51:27.741Z,4.00
2022-08-26T10:54:05.179Z,4.47
2022-08-26T10:56:41.506Z,4.40
2022-08-26T10:59:29.453Z,4.40
2022-08-26T11:02:12.092Z,4.20
2022-08-26T11:04:56.192Z,4.60
2022-08-26T11:07:57.549Z,4.63
2022-08-26T11:10:24.732Z,4.43
2022-08-26T11:13:01.683Z,5.03
2022-08-26T11:15:29.697Z,4.73
2022-08-26T11:18:24.263Z,4.53
2022-08-26T11:20:52.301Z,4.63
2022-08-26T11:23:21.224Z,4.70
2022-08-26T11:26:09.593Z,4.97
2022-08-26T11:28:46.069Z,5.07
2022-08-26T11:31:26.784Z,4.47
2022-08-26T11:34:00.016Z,22.57
2022-08-26T11:36:45.835Z,5.50
2022-08-26T11:39:29.638Z,4.90
2022-08-26T11:42:01.993Z,4.37
2022-08-26T11:44:49.691Z,4.63
2022-08-26T11:47:27.259Z,4.47
2022-08-26T11:50:17.478Z,4.47
2022-08-26T11:53:02.033Z,5.10
2022-08-26T11:55:31.754Z,5.20
2022-08-26T11:58:02.262Z,4.73
2022-08-26T12:00:37.949Z,5.03
2022-08-26T12:03:20.254Z,5.17
2022-08-26T12:05:53.418Z,5.40
2022-08-26T12:08:28.637Z,6.00
2022-08-26T12:11:04.223Z,5.47
2022-08-26T12:13:31.558Z,5.20
2022-08-26T12:16:00.535Z,5.37
2022-08-26T12:18:32.318Z,5.27
2022-08-26T12:21:10.412Z,5.63
2022-08-26T12:23:47.618Z,5.10
2022-08-26T12:26:33.157Z,5.00
2022-08-26T12:29:20.017Z,4.90
2022-08-26T12:31:48.325Z,5.20
2022-08-26T12:34:17.889Z,6.80
2022-08-26T12:39:38.474Z,6.93
2022-08-26T12:42:17.268Z,7.10
2022-08-26T12:45:07.627Z,7.27
2022-08-26T12:47:44.205Z,6.63
2022-08-26T12:50:24.204Z,6.67
2022-08-26T12:53:05.189Z,7.87
2022-08-26T12:55:32.633Z,8.10
2022-08-26T12:58:13.870Z,10.20
2022-08-26T13:00:45.809Z,8.47
2022-08-26T13:03:37.428Z,8.03
2022-08-26T13:06:15.709Z,7.43
2022-08-26T13:08:53.387Z,8.47
2022-08-26T13:11:32.724Z,7.90
2022-08-26T13:14:06.911Z,8.50
2022-08-26T13:16:37.153Z,8.60
2022-08-26T13:19:14.823Z,8.33
2022-08-26T13:21:48.747Z,8.73
2022-08-26T13:24:20.065Z,8.33
2022-08-26T13:26:49.816Z,9.17
2022-08-26T13:29:18.908Z,8.33
2022-08-26T13:31:47.273Z,8.37
2022-08-26T13:34:20.995Z,8.87
2022-08-26T13:36:50.367Z,8.23
2022-08-26T13:39:18.413Z,8.43
2022-08-26T13:41:46.535Z,7.90
2022-08-26T13:44:14.301Z,7.53
2022-08-26T13:46:42.151Z,8.53
2022-08-26T13:49:10.070Z,8.60
2022-08-26T13:51:37.999Z,8.33
2022-08-26T13:54:06.175Z,7.80
2022-08-26T13:56:34.732Z,6.47
2022-08-26T13:59:02.289Z,6.30
2022-08-26T14:01:31.817Z,6.87
2022-08-26T14:03:59.352Z,6.40
2022-08-26T14:06:27.031Z,6.40
2022-08-26T14:08:54.335Z,6.10
2022-08-26T14:11:21.685Z,5.93
2022-08-26T14:13:48.919Z,5.83
2022-08-26T14:16:27.348Z,5.70
2022-08-26T14:18:55.191Z,5.73
2022-08-26T14:21:25.593Z,6.03
2022-08-26T14:23:53.110Z,6.73
2022-08-26T14:26:28.699Z,5.70
2022-08-26T14:28:59.185Z,6.10
2022-08-26T14:31:29.538Z,7.20
2022-08-26T14:34:04.375Z,6.50
2022-08-26T14:36:32.695Z,5.63
2022-08-26T14:39:07.552Z,7.43
2022-08-26T14:41:38.991Z,7.63
2022-08-26T14:44:11.517Z,8.17
2022-08-26T14:46:49.019Z,8.10
2022-08-26T14:49:17.892Z,7.17
2022-08-26T14:51:45.897Z,7.37
2022-08-26T14:54:14.494Z,6.87
2022-08-26T14:57:04.013Z,7.47
2022-08-26T14:59:39.953Z,7.00
2022-08-26T15:02:11.565Z,6.60
2022-08-26T15:04:41.980Z,7.07
2022-08-26T15:07:09.779Z,7.77
2022-08-26T15:09:41.418Z,7.77
2022-08-26T15:12:09.013Z,7.00
2022-08-26T15:14:36.683Z,7.17
2022-08-26T15:17:04.981Z,7.73
2022-08-26T15:19:34.808Z,6.93
2022-08-26T15:22:02.212Z,7.40
2022-08-26T15:24:29.759Z,7.80
2022-08-26T15:26:57.481Z,7.33
2022-08-26T15:29:24.785Z,7.53
2022-08-26T15:31:55.185Z,8.17
2022-08-26T15:34:25.134Z,7.40
2022-08-26T15:36:52.593Z,7.00
2022-08-26T15:39:20.539Z,8.57
2022-08-26T15:41:47.935Z,9.23
2022-08-26T15:44:17.498Z,8.13
2022-08-26T15:46:45.832Z,8.47
2022-08-26T15:49:17.589Z,9.43
2022-08-26T15:51:48.223Z,8.57
2022-08-26T15:54:19.751Z,9.43
2022-08-26T15:56:52.461Z,9.00
2022-08-26T15:59:21.885Z,8.90
2022-08-26T16:01:50.391Z,10.03
2022-08-26T16:04:18.829Z,9.63
2022-08-26T16:06:50.487Z,9.50
2022-08-26T16:09:21.030Z,9.70
2022-08-26T16:11:48.442Z,10.70
2022-08-26T16:14:15.824Z,10.73
2022-08-26T16:16:43.505Z,10.37
2022-08-26T16:19:11.894Z,9.97
2022-08-26T16:21:40.692Z,9.37
2022-08-26T16:24:08.883Z,11.17
2022-08-26T16:26:38.665Z,10.23
2022-08-26T16:29:10.430Z,10.60
2022-08-26T16:31:38.870Z,10.90
2022-08-26T16:34:07.429Z,10.03
2022-08-26T16:36:38.733Z,11.10
2022-08-26T16:39:08.162Z,9.90
2022-08-26T16:41:35.970Z,10.90
2022-08-26T16:44:04.691Z,10.40
2022-08-26T16:46:32.464Z,10.00
2022-08-26T16:49:01.765Z,9.77
2022-08-26T16:51:29.718Z,10.53
2022-08-26T16:53:59.072Z,10.20
2022-08-26T16:56:33.925Z,11.37
2022-08-26T16:59:05.278Z,10.87
2022-08-26T17:01:32.865Z,10.73
2022-08-26T17:04:00.155Z,10.90
2022-08-26T17:06:27.406Z,11.33
2022-08-26T17:08:54.729Z,11.17
2022-08-26T17:11:21.920Z,11.60
2022-08-26T17:13:49.011Z,10.87
2022-08-26T17:16:16.593Z,11.63
2022-08-26T17:18:43.879Z,11.80
2022-08-26T17:21:13.400Z,11.13
2022-08-26T17:23:42.688Z,12.17
2022-08-26T17:26:12.234Z,11.77
2022-08-26T17:28:42.269Z,12.03
2022-08-26T17:31:11.588Z,12.10
2022-08-26T17:33:39.637Z,12.27
2022-08-26T17:36:08.893Z,11.97
2022-08-26T17:38:37.907Z,12.53
2022-08-26T17:41:09.745Z,11.77
2022-08-26T17:43:39.347Z,12.30
2022-08-26T17:46:09.120Z,12.80
2022-08-26T17:48:37.707Z,12.77
2022-08-26T17:51:14.267Z,12.57
2022-08-26T17:53:42.639Z,13.07
2022-08-26T17:56:11.737Z,12.97
2022-08-26T17:58:47.908Z,13.70
2022-08-26T18:01:20.651Z,13.33
2022-08-26T18:03:48.689Z,14.83
2022-08-26T18:06:16.287Z,14.13
2022-08-26T18:08:44.277Z,14.53
2022-08-26T18:11:21.077Z,15.27
2022-08-26T18:13:48.274Z,14.27
2022-08-26T18:16:17.906Z,15.37
2022-08-26T18:18:46.765Z,14.80
2022-08-26T18:21:23.806Z,14.77
2022-08-26T18:23:52.433Z,15.63
2022-08-26T18:26:29.534Z,15.03
2022-08-26T18:28:57.171Z,14.90
2022-08-26T18:31:25.133Z,14.03
2022-08-26T18:33:53.188Z,13.93
2022-08-26T18:36:26.928Z,13.00
2022-08-26T18:38:55.398Z,13.10
2022-08-26T18:41:26.383Z,13.73
2022-08-26T18:43:54.416Z,14.20
2022-08-26T18:46:25.599Z,12.77
2022-08-26T18:48:54.853Z,12.40
2022-08-26T18:51:28.280Z,13.67
2022-08-26T18:53:58.503Z,12.33
2022-08-26T18:56:26.035Z,12.90
2022-08-26T18:58:55.547Z,12.73
2022-08-26T19:01:27.250Z,12.77
2022-08-26T19:03:56.301Z,13.30
2022-08-26T19:06:26.822Z,12.13
2022-08-26T19:08:54.387Z,12.10
2022-08-26T19:11:31.203Z,13.27
2022-08-26T19:14:01.803Z,12.10
2022-08-26T19:16:31.229Z,12.83
2022-08-26T19:19:00.897Z,12.87
2022-08-26T19:21:29.869Z,12.70
2022-08-26T19:24:02.778Z,11.97
2022-08-26T19:26:31.977Z,12.20
2022-08-26T19:29:02.793Z,12.27
2022-08-26T19:31:30.335Z,12.80
2022-08-26T19:33:58.240Z,12.53
2022-08-26T19:36:26.981Z,13.27
2022-08-26T19:38:54.843Z,13.33
2022-08-26T19:41:37.287Z,13.77
2022-08-26T19:44:13.373Z,13.57
2022-08-26T19:46:44.925Z,14.37
2022-08-26T19:49:12.463Z,13.30
2022-08-26T19:51:40.050Z,13.87
2022-08-26T19:54:08.143Z,13.43
2022-08-26T19:56:35.406Z,13.93
2022-08-26T19:59:03.437Z,14.60
2022-08-26T20:01:31.175Z,13.80
2022-08-26T20:03:58.687Z,13.43
2022-08-26T20:06:25.934Z,14.13
2022-08-26T20:08:56.147Z,13.80
2022-08-26T20:11:24.096Z,14.33
2022-08-26T20:13:51.552Z,14.57
2022-08-26T20:16:19.143Z,13.47
2022-08-26T20:19:05.271Z,14.60
2022-08-26T20:21:36.234Z,13.80
2022-08-26T20:24:13.450Z,14.20
2022-08-26T20:26:42.813Z,13.60
2022-08-26T20:29:13.374Z,14.00
2022-08-26T20:31:42.617Z,14.33
2022-08-26T20:34:10.895Z,14.10
2022-08-26T20:36:39.814Z,13.93
2022-08-26T20:39:07.339Z,13.70
2022-08-26T20:41:35.805Z,13.33
2022-08-26T20:44:06.609Z,12.90
2022-08-26T20:46:38.309Z,12.50
2022-08-26T20:49:07.395Z,12.63
2022-08-26T20:51:37.596Z,12.33
2022-08-26T20:54:06.752Z,12.87
2022-08-26T20:56:34.681Z,14.67
2022-08-26T20:59:03.331Z,14.47
2022-08-26T21:01:34.772Z,13.73
2022-08-26T21:04:05.252Z,12.93
2022-08-26T21:06:34.132Z,13.23
2022-08-26T21:09:04.530Z,13.50
2022-08-26T21:11:33.110Z,14.03
2022-08-26T21:14:06.670Z,14.43
2022-08-26T21:16:39.609Z,14.50
2022-08-26T21:19:11.902Z,14.87
2022-08-26T21:21:40.934Z,14.77
2022-08-26T21:24:09.337Z,14.80
2022-08-26T21:26:37.018Z,14.33
2022-08-26T21:29:08.196Z,13.90
2022-08-26T21:31:39.143Z,13.43
2022-08-26T21:34:08.468Z,13.77
2022-08-26T21:36:35.940Z,14.90
2022-08-26T21:39:07.002Z,13.63
2022-08-26T21:41:38.321Z,13.70
2022-08-26T21:44:05.425Z,12.67
2022-08-26T21:46:34.714Z,13.37
2022-08-26T21:49:03.723Z,13.17
2022-08-26T21:51:41.174Z,13.60
2022-08-26T21:54:11.061Z,13.20
2022-08-26T21:56:42.497Z,13.20
2022-08-26T21:59:10.550Z,13.67
2022-08-26T22:01:38.257Z,14.30
2022-08-26T22:04:08.159Z,13.70
2022-08-26T22:06:41.894Z,13.93
2022-08-26T22:09:10.816Z,13.27
2022-08-26T22:11:37.939Z,13.77
2022-08-26T22:14:07.234Z,13.50
2022-08-26T22:16:34.712Z,13.83
2022-08-26T22:19:02.316Z,14.27
2022-08-26T22:21:29.521Z,14.17
2022-08-26T22:23:58.431Z,14.47
2022-08-26T22:26:29.368Z,13.47
2022-08-26T22:28:59.393Z,14.03
2022-08-26T22:31:37.283Z,13.50
2022-08-26T22:34:11.840Z,13.73
2022-08-26T22:36:44.284Z,13.60
2022-08-26T22:39:17.398Z,14.37
2022-08-26T22:41:46.240Z,13.70
2022-08-26T22:44:13.480Z,13.60
2022-08-26T22:46:42.267Z,14.07
2022-08-26T22:49:11.570Z,14.80
2022-08-26T22:51:39.457Z,14.23
2022-08-26T22:54:06.683Z,13.97
2022-08-26T22:56:35.011Z,14.37
2022-08-26T22:59:02.162Z,13.50
2022-08-26T23:01:31.430Z,12.67
2022-08-26T23:03:58.531Z,12.43
2022-08-26T23:06:25.724Z,11.93
2022-08-26T23:08:53.320Z,13.00
2022-08-26T23:11:23.721Z,11.57
2022-08-26T23:13:52.102Z,11.50
2022-08-26T23:16:19.593Z,12.47
2022-08-26T23:18:47.329Z,12.30
2022-08-26T23:21:15.425Z,11.73
2022-08-26T23:23:45.672Z,12.10
2022-08-26T23:26:17.393Z,11.60
2022-08-26T23:28:45.050Z,12.47
2022-08-26T23:31:12.650Z,12.67
2022-08-26T23:33:58.634Z,12.23
2022-08-26T23:36:25.841Z,10.93
2022-08-26T23:38:53.581Z,11.83
2022-08-26T23:41:22.752Z,12.20
2022-08-26T23:43:51.728Z,10.87
2022-08-26T23:46:19.993Z,11.43
2022-08-26T23:48:47.843Z,11.27
2022-08-26T23:51:33.833Z,11.77
2022-08-26T23:54:01.373Z,11.30
2022-08-26T23:56:29.352Z,11.30
2022-08-26T23:58:57.046Z,12.47
